San Luis, Colorado
Current Conditions -  °F | °C
As of 2:31 AM on Tuesday 21 Oct 2014 (Local Time) from KVTP Reporting Station
Clear Clear  
Wind Chill: 32°   Ceiling: Unl
Heat Index: 39°   Visibility: 10mi
Dew Point: 34°   Wind: 13mph
Humidity: 81%   Direction: 190°S
Pressure: 30.33"   Gusts: 22mph
Location:  37.2°N, 105.42°W
Report Text: KVTP 210831Z AUTO 19011G19KT 150V240 10SM CLR 04/01 A3033 RMK AO2
Loading
Personal Weather Stations






























Interactive Weather Map
Tropical Storm Tracking
New forecast layout! Learn more

10-Day Weather Forecast

Advertisements
Track Severe Weather on mobile